createdAt,value
2023-12-26T00:00:38.223Z,3.38
2023-12-26T00:08:46.453Z,1.85
2023-12-26T00:30:26.384Z,1.60
2023-12-26T00:35:41.848Z,2.97
2023-12-26T00:38:18.373Z,5.30
2023-12-26T00:41:22.687Z,3.05
2023-12-26T00:43:52.565Z,1.73
2023-12-26T00:46:25.694Z,2.25
2023-12-26T00:51:28.487Z,1.80
2023-12-26T00:54:12.296Z,3.25
2023-12-26T01:02:11.517Z,1.90
2023-12-26T01:35:39.005Z,2.63
2023-12-26T02:48:39.737Z,2.33
2023-12-26T02:51:09.970Z,3.78
2023-12-26T02:56:34.899Z,2.95
2023-12-26T03:08:05.585Z,6.75
2023-12-26T03:10:48.857Z,2.78
2023-12-26T03:13:16.461Z,2.33
2023-12-26T03:21:20.178Z,2.70
2023-12-26T03:23:49.120Z,2.83
2023-12-26T08:05:33.881Z,3.03
2023-12-26T08:49:29.664Z,8.43
2023-12-26T08:52:06.357Z,2.67
2023-12-26T08:54:37.369Z,2.70
2023-12-26T08:57:22.078Z,2.95
2023-12-26T08:59:57.757Z,3.35
2023-12-26T09:02:40.431Z,8.40
2023-12-26T09:05:17.857Z,3.65
2023-12-26T09:08:00.860Z,8.10
2023-12-26T09:10:36.444Z,4.43
2023-12-26T09:13:03.403Z,3.03
2023-12-26T09:15:39.465Z,7.25
2023-12-26T09:18:19.703Z,6.07
2023-12-26T09:21:01.796Z,2.33
2023-12-26T09:26:20.781Z,4.60
2023-12-26T09:29:41.305Z,7.97
2023-12-26T09:32:05.249Z,2.42
2023-12-26T09:40:49.114Z,7.25
2023-12-26T09:43:26.164Z,2.92
2023-12-26T09:46:12.882Z,2.65
2023-12-26T10:03:49.114Z,2.80
2023-12-26T10:06:37.890Z,7.22
2023-12-26T10:12:07.676Z,2.95
2023-12-26T12:52:04.911Z,2.63
2023-12-26T12:55:29.995Z,4.80
2023-12-26T12:58:40.838Z,2.38
2023-12-26T13:01:46.914Z,4.05
2023-12-26T13:05:02.459Z,8.10
2023-12-26T13:18:22.152Z,3.33
2023-12-26T13:21:26.809Z,3.53
2023-12-26T13:34:45.647Z,1.85
2023-12-26T13:37:50.176Z,2.37
2023-12-26T13:40:57.514Z,3.38
2023-12-26T13:44:17.002Z,2.65
2023-12-26T13:50:54.135Z,1.92
2023-12-26T13:57:31.441Z,6.03
2023-12-26T14:10:13.847Z,2.20
2023-12-26T14:13:18.801Z,2.58
2023-12-26T14:16:23.971Z,1.58
2023-12-26T14:19:37.542Z,1.80
2023-12-26T14:22:12.899Z,6.03
2023-12-26T14:24:39.753Z,2.20
2023-12-26T14:27:18.491Z,2.08
2023-12-26T14:29:45.344Z,2.25
2023-12-26T14:32:49.881Z,2.47
2023-12-26T15:06:38.599Z,1.73
2023-12-26T15:12:20.679Z,5.38
2023-12-26T15:15:10.493Z,3.88
2023-12-26T15:18:33.403Z,7.68
2023-12-26T15:44:56.554Z,1.88
2023-12-26T15:47:24.121Z,2.35
2023-12-26T15:50:22.568Z,7.15
2023-12-26T16:19:56.090Z,2.13
2023-12-26T16:28:28.825Z,2.05
2023-12-26T16:33:58.138Z,3.30
2023-12-26T16:36:31.292Z,4.38
2023-12-26T16:47:00.649Z,4.55
2023-12-26T17:01:24.315Z,2.65
2023-12-26T17:03:57.622Z,5.47
2023-12-26T17:06:27.049Z,3.70
2023-12-26T17:09:22.097Z,4.68
2023-12-26T17:11:49.706Z,2.50
2023-12-26T17:14:30.258Z,3.92
2023-12-26T17:17:09.437Z,7.28
2023-12-26T17:19:41.247Z,4.77
2023-12-26T18:26:22.869Z,5.93
2023-12-26T18:28:57.200Z,4.30
2023-12-26T18:31:24.218Z,4.97
2023-12-26T18:34:34.513Z,4.38
2023-12-26T18:37:06.266Z,6.13
2023-12-26T18:42:59.404Z,5.05
2023-12-26T18:46:04.556Z,4.43
2023-12-26T18:48:33.999Z,4.03
2023-12-26T18:51:09.619Z,4.70
2023-12-26T18:53:42.657Z,4.47
2023-12-26T18:56:15.695Z,4.18
2023-12-26T18:58:42.792Z,4.63
2023-12-26T19:01:10.127Z,4.63
2023-12-26T19:06:22.752Z,6.00
2023-12-26T19:08:58.703Z,5.63
2023-12-26T19:11:31.464Z,5.90
2023-12-26T19:14:00.884Z,6.53
2023-12-26T19:16:27.761Z,6.65
2023-12-26T19:18:57.948Z,6.22
2023-12-26T19:21:24.854Z,6.07
2023-12-26T19:23:57.067Z,5.77
2023-12-26T19:26:36.266Z,6.47
2023-12-26T19:31:45.966Z,5.78
2023-12-26T19:34:15.779Z,5.63
2023-12-26T19:36:42.676Z,5.63
2023-12-26T19:39:29.764Z,6.43
2023-12-26T19:41:56.629Z,6.10
2023-12-26T19:44:23.789Z,5.85
2023-12-26T19:46:50.650Z,5.72
2023-12-26T19:49:17.645Z,6.10
2023-12-26T19:51:44.929Z,5.32
2023-12-26T19:54:11.759Z,5.63
2023-12-26T19:56:42.855Z,5.40
2023-12-26T19:59:09.685Z,6.22
2023-12-26T20:01:44.021Z,5.93
2023-12-26T20:04:16.693Z,6.05
2023-12-26T20:06:52.444Z,6.47
2023-12-26T20:09:28.315Z,7.82
2023-12-26T20:11:55.491Z,6.88
2023-12-26T20:14:25.586Z,6.97
2023-12-26T20:17:03.599Z,6.60
2023-12-26T20:19:33.652Z,6.63
2023-12-26T20:22:00.629Z,6.57
2023-12-26T20:24:27.521Z,6.47
2023-12-26T20:27:05.100Z,6.60
2023-12-26T20:29:32.136Z,6.80
2023-12-26T20:32:01.770Z,5.85
2023-12-26T20:40:41.550Z,5.83
2023-12-26T20:43:44.180Z,6.32
2023-12-26T20:46:18.167Z,5.05
2023-12-26T20:54:47.822Z,3.90
2023-12-26T20:57:17.121Z,4.75
2023-12-26T20:59:58.486Z,5.25
2023-12-26T21:02:32.601Z,4.90
2023-12-26T21:04:59.457Z,4.88
2023-12-26T21:07:32.150Z,4.40
2023-12-26T21:09:58.941Z,5.15
2023-12-26T21:12:25.946Z,5.53
2023-12-26T21:14:52.777Z,5.05
2023-12-26T21:17:25.073Z,4.85
2023-12-26T21:19:51.997Z,4.90
2023-12-26T21:22:26.648Z,5.53
2023-12-26T21:25:12.098Z,4.97
2023-12-26T21:27:58.035Z,4.85
2023-12-26T21:30:37.969Z,4.97
2023-12-26T21:33:14.184Z,4.87
2023-12-26T21:35:43.818Z,4.82
2023-12-26T21:38:10.694Z,5.07
2023-12-26T21:40:44.603Z,5.18
2023-12-26T21:43:11.462Z,5.15
2023-12-26T21:45:47.243Z,5.23
2023-12-26T21:48:29.324Z,4.68
2023-12-26T21:51:02.348Z,7.10
2023-12-26T21:53:47.338Z,7.28
2023-12-26T21:56:24.876Z,5.85
2023-12-26T21:58:51.646Z,6.38
2023-12-26T22:01:25.654Z,6.03
2023-12-26T22:04:04.262Z,6.07
2023-12-26T22:06:56.519Z,6.22
2023-12-26T22:09:30.667Z,6.15
2023-12-26T22:11:57.560Z,6.00
2023-12-26T22:14:39.583Z,6.88
2023-12-26T22:17:21.998Z,6.82
2023-12-26T22:19:49.033Z,6.70
2023-12-26T22:22:26.838Z,7.45
2023-12-26T22:25:05.279Z,6.90
2023-12-26T22:27:44.330Z,6.70
2023-12-26T22:30:11.415Z,6.20
2023-12-26T22:32:44.288Z,6.63
2023-12-26T22:35:24.435Z,6.85
2023-12-26T22:38:06.006Z,6.13
2023-12-26T22:40:56.754Z,5.55
2023-12-26T22:43:40.022Z,7.88
2023-12-26T22:46:28.114Z,6.85
2023-12-26T22:49:01.049Z,7.30
2023-12-26T22:51:40.245Z,7.60
2023-12-26T22:54:16.702Z,8.35
2023-12-26T22:56:58.581Z,7.93
2023-12-26T22:59:25.477Z,7.53
2023-12-26T23:02:06.020Z,8.48
2023-12-26T23:04:45.970Z,8.30
2023-12-26T23:07:12.819Z,8.38
2023-12-26T23:09:54.831Z,8.82
2023-12-26T23:12:32.357Z,7.53
2023-12-26T23:15:05.780Z,7.18
2023-12-26T23:20:29.521Z,8.30
2023-12-26T23:23:05.423Z,8.93
2023-12-26T23:25:44.323Z,8.60
2023-12-26T23:28:14.642Z,9.95
2023-12-26T23:31:01.823Z,10.13
2023-12-26T23:33:41.482Z,8.65
2023-12-26T23:36:53.652Z,9.55
2023-12-26T23:39:21.452Z,9.60
2023-12-26T23:44:35.163Z,8.93
2023-12-26T23:47:02.438Z,9.18
2023-12-26T23:49:29.418Z,9.40
2023-12-26T23:51:59.531Z,8.85
2023-12-26T23:54:26.497Z,8.63
2023-12-26T23:56:53.364Z,9.93
2023-12-26T23:59:32.665Z,9.43
